EAG5504 SBEG-SBFZ
Flight info
| Callsign | EAG5504 |
|---|---|
| Flight time | N/A |
| Altitude | 35000 |
| Route | XOLOK DCT PUDVO UZ12 ANGUB/N0451F370 UZ12 ESDAB DCT FLZ |
| Aircraft | B738/M-SDE2E3FGHIRWXY/LB1 |
Departure
| Time | N/A |
|---|---|
| Airport | Eduardo Gomes International Airport (SBEG) |
Arrival
| Time | 2026-05-08 00:15 |
|---|---|
| Airport | Pinto Martins International Airport (SBFZ) |
| Time | Latitude | Longitude | Altitude | Speed | Heading |
|---|---|---|---|---|---|
| 2026-05-08 00:06 | -3.76673 | -38.56808 | 734 ft | 153 kts | 103° |
| 2026-05-08 00:06 | -3.76954 | -38.55753 | 1419 ft | 154 kts | 100° |
| 2026-05-08 00:06 | -3.76880 | -38.54714 | 2080 ft | 158 kts | 66° |
| 2026-05-08 00:06 | -3.76004 | -38.53916 | 2530 ft | 189 kts | 26° |
| 2026-05-08 00:07 | -3.74646 | -38.53812 | 2848 ft | 206 kts | 349° |
| 2026-05-08 00:07 | -3.73385 | -38.54552 | 2956 ft | 224 kts | 316° |
| 2026-05-08 00:07 | -3.72579 | -38.55938 | 2992 ft | 236 kts | 294° |
| 2026-05-08 00:07 | -3.72050 | -38.57511 | 2969 ft | 240 kts | 287° |
| 2026-05-08 00:08 | -3.71626 | -38.59127 | 2982 ft | 240 kts | 285° |
| 2026-05-08 00:08 | -3.71214 | -38.60747 | 2990 ft | 240 kts | 284° |
| 2026-05-08 00:08 | -3.70806 | -38.62342 | 2995 ft | 239 kts | 284° |
| 2026-05-08 00:08 | -3.70396 | -38.63952 | 2998 ft | 238 kts | 284° |
| 2026-05-08 00:09 | -3.69986 | -38.65563 | 2999 ft | 238 kts | 284° |
| 2026-05-08 00:09 | -3.69577 | -38.67171 | 3000 ft | 238 kts | 284° |
| 2026-05-08 00:09 | -3.69224 | -38.68790 | 2988 ft | 239 kts | 274° |
| 2026-05-08 00:09 | -3.69517 | -38.70374 | 2981 ft | 225 kts | 242° |
| 2026-05-08 00:10 | -3.70534 | -38.71419 | 2928 ft | 200 kts | 201° |
| 2026-05-08 00:10 | -3.71785 | -38.71442 | 2926 ft | 174 kts | 153° |
| 2026-05-08 00:10 | -3.72597 | -38.70642 | 2985 ft | 160 kts | 121° |
| 2026-05-08 00:10 | -3.73069 | -38.69642 | 3025 ft | 159 kts | 112° |
| 2026-05-08 00:11 | -3.73460 | -38.68606 | 2930 ft | 163 kts | 109° |
| 2026-05-08 00:11 | -3.73804 | -38.67520 | 2721 ft | 163 kts | 106° |
| 2026-05-08 00:11 | -3.74112 | -38.66434 | 2499 ft | 162 kts | 104° |
| 2026-05-08 00:11 | -3.74409 | -38.65344 | 2287 ft | 162 kts | 104° |
| 2026-05-08 00:12 | -3.74698 | -38.64270 | 2113 ft | 157 kts | 103° |
| 2026-05-08 00:12 | -3.74978 | -38.63221 | 1874 ft | 152 kts | 103° |
| 2026-05-08 00:12 | -3.75245 | -38.62216 | 1661 ft | 147 kts | 103° |
| 2026-05-08 00:12 | -3.75507 | -38.61234 | 1465 ft | 144 kts | 103° |
| 2026-05-08 00:13 | -3.75762 | -38.60272 | 1279 ft | 143 kts | 103° |
| 2026-05-08 00:13 | -3.76020 | -38.59302 | 1094 ft | 145 kts | 103° |
| 2026-05-08 00:13 | -3.76282 | -38.58319 | 900 ft | 146 kts | 103° |
| 2026-05-08 00:13 | -3.76541 | -38.57343 | 705 ft | 144 kts | 104° |
| 2026-05-08 00:14 | -3.76792 | -38.56374 | 491 ft | 142 kts | 104° |
| 2026-05-08 00:14 | -3.77047 | -38.55431 | 313 ft | 139 kts | 105° |
| 2026-05-08 00:14 | -3.77299 | -38.54502 | 137 ft | 137 kts | 105° |
| 2026-05-08 00:14 | -3.77523 | -38.53659 | 91 ft | 106 kts | 105° |
| 2026-05-08 00:15 | -3.77647 | -38.53195 | 90 ft | 37 kts | 105° |
| 2026-05-08 00:15 | -3.77665 | -38.53069 | 90 ft | 12 kts | 57° |
| 2026-05-08 00:15 | -3.77557 | -38.53035 | 90 ft | 20 kts | 7° |
| 2026-05-08 00:15 | -3.77508 | -38.53123 | 90 ft | 19 kts | 284° |
| 2026-05-08 00:16 | -3.77462 | -38.53303 | 90 ft | 34 kts | 284° |
| 2026-05-08 00:16 | -3.77400 | -38.53560 | 90 ft | 38 kts | 283° |
| 2026-05-08 00:16 | -3.77363 | -38.53807 | 90 ft | 39 kts | 237° |
| 2026-05-08 00:16 | -3.77561 | -38.53978 | 90 ft | 32 kts | 212° |
| 2026-05-08 00:17 | -3.77698 | -38.54091 | 90 ft | 11 kts | 194° |
| 2026-05-08 00:17 | -3.77749 | -38.54106 | 90 ft | 1 kts | 202° |
| 2026-05-08 00:17 | -3.77752 | -38.54108 | 90 ft | 0 kts | 204° |